sensor_id;sensor_type;location;lat;lon;timestamp;P1;durP1;ratioP1;P2;durP2;ratioP2
81378;SDS011;70830;42.290;-71.354;2023-08-30T00:00:19;4.25;;;3.75;;
81378;SDS011;70830;42.290;-71.354;2023-08-30T00:02:48;10.05;;;4.30;;
81378;SDS011;70830;42.290;-71.354;2023-08-30T00:05:14;4.57;;;4.07;;
81378;SDS011;70830;42.290;-71.354;2023-08-30T00:07:40;5.35;;;4.50;;
81378;SDS011;70830;42.290;-71.354;2023-08-30T00:10:06;6.70;;;4.50;;
81378;SDS011;70830;42.290;-71.354;2023-08-30T00:12:33;5.07;;;4.32;;
81378;SDS011;70830;42.290;-71.354;2023-08-30T00:14:59;4.50;;;4.03;;
81378;SDS011;70830;42.290;-71.354;2023-08-30T00:17:25;4.47;;;4.05;;
81378;SDS011;70830;42.290;-71.354;2023-08-30T00:19:51;4.53;;;3.67;;
81378;SDS011;70830;42.290;-71.354;2023-08-30T00:22:18;8.70;;;4.15;;
81378;SDS011;70830;42.290;-71.354;2023-08-30T00:24:46;7.53;;;4.35;;
81378;SDS011;70830;42.290;-71.354;2023-08-30T00:27:12;6.55;;;4.15;;
81378;SDS011;70830;42.290;-71.354;2023-08-30T00:29:38;6.25;;;3.80;;
81378;SDS011;70830;42.290;-71.354;2023-08-30T00:32:04;5.47;;;4.88;;
81378;SDS011;70830;42.290;-71.354;2023-08-30T00:34:30;5.40;;;4.18;;
81378;SDS011;70830;42.290;-71.354;2023-08-30T00:36:56;5.43;;;4.93;;
81378;SDS011;70830;42.290;-71.354;2023-08-30T00:39:22;5.18;;;4.40;;
81378;SDS011;70830;42.290;-71.354;2023-08-30T00:41:48;6.43;;;4.60;;
81378;SDS011;70830;42.290;-71.354;2023-08-30T00:44:13;5.82;;;4.55;;
81378;SDS011;70830;42.290;-71.354;2023-08-30T00:46:40;8.23;;;4.65;;
81378;SDS011;70830;42.290;-71.354;2023-08-30T00:49:06;5.70;;;4.63;;
81378;SDS011;70830;42.290;-71.354;2023-08-30T00:51:32;5.85;;;4.78;;
81378;SDS011;70830;42.290;-71.354;2023-08-30T00:53:59;8.00;;;5.13;;
81378;SDS011;70830;42.290;-71.354;2023-08-30T00:56:26;7.18;;;5.35;;
81378;SDS011;70830;42.290;-71.354;2023-08-30T00:58:53;11.38;;;5.40;;
81378;SDS011;70830;42.290;-71.354;2023-08-30T01:01:20;9.40;;;5.65;;
81378;SDS011;70830;42.290;-71.354;2023-08-30T01:03:47;10.55;;;5.82;;
81378;SDS011;70830;42.290;-71.354;2023-08-30T01:06:12;6.90;;;5.03;;
81378;SDS011;70830;42.290;-71.354;2023-08-30T01:08:39;8.05;;;5.50;;
81378;SDS011;70830;42.290;-71.354;2023-08-30T01:11:30;8.48;;;6.55;;
81378;SDS011;70830;42.290;-71.354;2023-08-30T01:14:09;9.48;;;5.72;;
81378;SDS011;70830;42.290;-71.354;2023-08-30T01:16:40;8.45;;;6.22;;
81378;SDS011;70830;42.290;-71.354;2023-08-30T01:19:42;9.95;;;6.00;;
81378;SDS011;70830;42.290;-71.354;2023-08-30T01:22:19;7.23;;;5.90;;
81378;SDS011;70830;42.290;-71.354;2023-08-30T01:25:09;7.85;;;5.68;;
81378;SDS011;70830;42.290;-71.354;2023-08-30T01:28:00;12.27;;;6.90;;
81378;SDS011;70830;42.290;-71.354;2023-08-30T01:30:30;15.13;;;7.00;;
81378;SDS011;70830;42.290;-71.354;2023-08-30T01:32:59;9.77;;;7.10;;
81378;SDS011;70830;42.290;-71.354;2023-08-30T01:35:27;10.57;;;6.57;;
81378;SDS011;70830;42.290;-71.354;2023-08-30T01:37:58;8.55;;;6.72;;
81378;SDS011;70830;42.290;-71.354;2023-08-30T01:40:25;8.23;;;6.07;;
81378;SDS011;70830;42.290;-71.354;2023-08-30T01:42:53;7.80;;;6.32;;
81378;SDS011;70830;42.290;-71.354;2023-08-30T01:45:21;7.50;;;6.00;;
81378;SDS011;70830;42.290;-71.354;2023-08-30T01:47:48;8.55;;;5.82;;
81378;SDS011;70830;42.290;-71.354;2023-08-30T01:50:17;13.15;;;6.13;;
81378;SDS011;70830;42.290;-71.354;2023-08-30T01:52:44;9.40;;;6.00;;
81378;SDS011;70830;42.290;-71.354;2023-08-30T01:55:12;7.65;;;6.22;;
81378;SDS011;70830;42.290;-71.354;2023-08-30T01:57:40;11.32;;;6.45;;
81378;SDS011;70830;42.290;-71.354;2023-08-30T02:00:06;13.60;;;7.13;;
81378;SDS011;70830;42.290;-71.354;2023-08-30T02:02:33;16.88;;;7.43;;
81378;SDS011;70830;42.290;-71.354;2023-08-30T02:04:59;9.88;;;6.43;;
81378;SDS011;70830;42.290;-71.354;2023-08-30T02:07:28;11.25;;;6.68;;
81378;SDS011;70830;42.290;-71.354;2023-08-30T02:10:21;11.82;;;7.03;;
81378;SDS011;70830;42.290;-71.354;2023-08-30T02:12:51;7.95;;;5.22;;
81378;SDS011;70830;42.290;-71.354;2023-08-30T02:15:19;7.90;;;5.22;;
81378;SDS011;70830;42.290;-71.354;2023-08-30T02:17:48;10.27;;;5.90;;
81378;SDS011;70830;42.290;-71.354;2023-08-30T02:20:15;6.82;;;5.20;;
81378;SDS011;70830;42.290;-71.354;2023-08-30T02:22:41;8.18;;;4.95;;
81378;SDS011;70830;42.290;-71.354;2023-08-30T02:25:08;7.82;;;4.93;;
81378;SDS011;70830;42.290;-71.354;2023-08-30T02:27:35;7.15;;;4.50;;
81378;SDS011;70830;42.290;-71.354;2023-08-30T02:30:01;8.27;;;4.40;;
81378;SDS011;70830;42.290;-71.354;2023-08-30T02:32:28;8.85;;;5.60;;
81378;SDS011;70830;42.290;-71.354;2023-08-30T02:34:55;9.32;;;5.60;;
81378;SDS011;70830;42.290;-71.354;2023-08-30T02:37:22;6.47;;;4.68;;
81378;SDS011;70830;42.290;-71.354;2023-08-30T02:39:48;6.82;;;4.30;;
81378;SDS011;70830;42.290;-71.354;2023-08-30T02:42:14;6.45;;;4.35;;
81378;SDS011;70830;42.290;-71.354;2023-08-30T02:44:40;5.05;;;3.83;;
81378;SDS011;70830;42.290;-71.354;2023-08-30T02:47:06;5.35;;;3.95;;
81378;SDS011;70830;42.290;-71.354;2023-08-30T02:49:32;6.72;;;4.00;;
81378;SDS011;70830;42.290;-71.354;2023-08-30T02:51:58;4.43;;;3.50;;
81378;SDS011;70830;42.290;-71.354;2023-08-30T02:54:24;6.30;;;3.95;;
81378;SDS011;70830;42.290;-71.354;2023-08-30T02:56:50;3.60;;;2.60;;
81378;SDS011;70830;42.290;-71.354;2023-08-30T02:59:16;3.47;;;2.75;;
81378;SDS011;70830;42.290;-71.354;2023-08-30T03:01:42;5.50;;;2.83;;
81378;SDS011;70830;42.290;-71.354;2023-08-30T03:04:08;6.10;;;3.25;;
81378;SDS011;70830;42.290;-71.354;2023-08-30T03:06:34;4.82;;;3.22;;
81378;SDS011;70830;42.290;-71.354;2023-08-30T03:09:01;4.05;;;3.20;;
81378;SDS011;70830;42.290;-71.354;2023-08-30T03:11:31;4.35;;;3.33;;
81378;SDS011;70830;42.290;-71.354;2023-08-30T03:13:57;3.00;;;2.50;;
81378;SDS011;70830;42.290;-71.354;2023-08-30T03:16:24;2.80;;;2.38;;
81378;SDS011;70830;42.290;-71.354;2023-08-30T03:18:49;4.05;;;2.88;;
81378;SDS011;70830;42.290;-71.354;2023-08-30T03:21:15;3.95;;;2.47;;
81378;SDS011;70830;42.290;-71.354;2023-08-30T03:23:42;3.08;;;2.63;;
81378;SDS011;70830;42.290;-71.354;2023-08-30T03:26:15;2.92;;;2.33;;
81378;SDS011;70830;42.290;-71.354;2023-08-30T03:28:42;3.00;;;2.10;;
81378;SDS011;70830;42.290;-71.354;2023-08-30T03:31:12;5.00;;;2.90;;
81378;SDS011;70830;42.290;-71.354;2023-08-30T03:33:41;4.22;;;2.42;;
81378;SDS011;70830;42.290;-71.354;2023-08-30T03:36:09;2.38;;;2.08;;
81378;SDS011;70830;42.290;-71.354;2023-08-30T03:38:37;3.47;;;2.70;;
81378;SDS011;70830;42.290;-71.354;2023-08-30T03:41:04;3.97;;;2.65;;
81378;SDS011;70830;42.290;-71.354;2023-08-30T03:43:30;3.78;;;2.40;;
81378;SDS011;70830;42.290;-71.354;2023-08-30T03:45:57;2.78;;;2.47;;
81378;SDS011;70830;42.290;-71.354;2023-08-30T03:48:25;3.78;;;2.72;;
81378;SDS011;70830;42.290;-71.354;2023-08-30T03:50:51;3.10;;;2.70;;
81378;SDS011;70830;42.290;-71.354;2023-08-30T03:53:17;3.63;;;2.67;;
81378;SDS011;70830;42.290;-71.354;2023-08-30T03:55:43;3.97;;;3.10;;
81378;SDS011;70830;42.290;-71.354;2023-08-30T03:58:09;3.05;;;2.75;;
81378;SDS011;70830;42.290;-71.354;2023-08-30T04:00:36;2.90;;;2.60;;
81378;SDS011;70830;42.290;-71.354;2023-08-30T04:03:03;3.08;;;2.78;;
81378;SDS011;70830;42.290;-71.354;2023-08-30T04:05:33;3.53;;;2.92;;
81378;SDS011;70830;42.290;-71.354;2023-08-30T04:07:59;3.45;;;2.90;;
81378;SDS011;70830;42.290;-71.354;2023-08-30T04:10:26;4.32;;;3.08;;
81378;SDS011;70830;42.290;-71.354;2023-08-30T04:12:52;4.57;;;3.25;;
81378;SDS011;70830;42.290;-71.354;2023-08-30T04:15:18;3.60;;;2.90;;
81378;SDS011;70830;42.290;-71.354;2023-08-30T04:17:44;5.15;;;3.53;;
81378;SDS011;70830;42.290;-71.354;2023-08-30T04:20:10;3.40;;;3.10;;
81378;SDS011;70830;42.290;-71.354;2023-08-30T04:22:36;4.85;;;3.53;;
81378;SDS011;70830;42.290;-71.354;2023-08-30T04:25:03;4.75;;;4.10;;
81378;SDS011;70830;42.290;-71.354;2023-08-30T04:27:29;8.55;;;4.60;;
81378;SDS011;70830;42.290;-71.354;2023-08-30T04:29:55;6.40;;;4.93;;
81378;SDS011;70830;42.290;-71.354;2023-08-30T04:32:21;8.75;;;5.40;;
81378;SDS011;70830;42.290;-71.354;2023-08-30T04:34:47;6.85;;;5.03;;
81378;SDS011;70830;42.290;-71.354;2023-08-30T04:37:13;6.68;;;5.07;;
81378;SDS011;70830;42.290;-71.354;2023-08-30T04:39:40;7.40;;;4.93;;
81378;SDS011;70830;42.290;-71.354;2023-08-30T04:42:05;6.82;;;5.20;;
81378;SDS011;70830;42.290;-71.354;2023-08-30T04:44:31;8.57;;;5.25;;
81378;SDS011;70830;42.290;-71.354;2023-08-30T04:46:58;10.50;;;6.20;;
81378;SDS011;70830;42.290;-71.354;2023-08-30T04:49:23;6.35;;;5.25;;
81378;SDS011;70830;42.290;-71.354;2023-08-30T04:51:54;6.72;;;5.07;;
81378;SDS011;70830;42.290;-71.354;2023-08-30T04:54:20;6.13;;;4.47;;
81378;SDS011;70830;42.290;-71.354;2023-08-30T04:56:46;6.00;;;4.30;;
81378;SDS011;70830;42.290;-71.354;2023-08-30T04:59:12;5.78;;;4.85;;
81378;SDS011;70830;42.290;-71.354;2023-08-30T05:01:38;5.10;;;4.25;;
81378;SDS011;70830;42.290;-71.354;2023-08-30T05:04:07;4.65;;;3.72;;
81378;SDS011;70830;42.290;-71.354;2023-08-30T05:06:33;5.75;;;3.88;;
81378;SDS011;70830;42.290;-71.354;2023-08-30T05:08:59;3.97;;;3.28;;
81378;SDS011;70830;42.290;-71.354;2023-08-30T05:11:25;5.57;;;4.18;;
81378;SDS011;70830;42.290;-71.354;2023-08-30T05:13:50;5.78;;;3.95;;
81378;SDS011;70830;42.290;-71.354;2023-08-30T05:16:16;6.00;;;4.07;;
81378;SDS011;70830;42.290;-71.354;2023-08-30T05:18:42;6.60;;;4.47;;
81378;SDS011;70830;42.290;-71.354;2023-08-30T05:21:08;6.30;;;4.45;;
81378;SDS011;70830;42.290;-71.354;2023-08-30T05:23:34;5.50;;;3.95;;
81378;SDS011;70830;42.290;-71.354;2023-08-30T05:26:00;7.03;;;3.75;;
81378;SDS011;70830;42.290;-71.354;2023-08-30T05:28:26;5.03;;;3.90;;
81378;SDS011;70830;42.290;-71.354;2023-08-30T05:30:52;4.03;;;3.08;;
81378;SDS011;70830;42.290;-71.354;2023-08-30T05:33:18;3.80;;;3.00;;
81378;SDS011;70830;42.290;-71.354;2023-08-30T05:35:44;3.95;;;2.40;;
81378;SDS011;70830;42.290;-71.354;2023-08-30T05:38:10;3.03;;;2.25;;
81378;SDS011;70830;42.290;-71.354;2023-08-30T05:40:36;2.38;;;2.17;;
81378;SDS011;70830;42.290;-71.354;2023-08-30T05:43:07;2.60;;;1.80;;
81378;SDS011;70830;42.290;-71.354;2023-08-30T05:45:33;3.67;;;2.95;;
81378;SDS011;70830;42.290;-71.354;2023-08-30T05:47:59;3.35;;;2.72;;
81378;SDS011;70830;42.290;-71.354;2023-08-30T05:50:25;3.95;;;2.47;;
81378;SDS011;70830;42.290;-71.354;2023-08-30T05:52:51;4.22;;;2.00;;
81378;SDS011;70830;42.290;-71.354;2023-08-30T05:55:17;4.10;;;1.95;;
81378;SDS011;70830;42.290;-71.354;2023-08-30T05:57:43;3.55;;;2.47;;
81378;SDS011;70830;42.290;-71.354;2023-08-30T06:00:09;2.25;;;1.90;;
81378;SDS011;70830;42.290;-71.354;2023-08-30T06:02:35;4.75;;;2.20;;
81378;SDS011;70830;42.290;-71.354;2023-08-30T06:05:01;3.05;;;2.45;;
81378;SDS011;70830;42.290;-71.354;2023-08-30T06:07:28;3.55;;;2.15;;
81378;SDS011;70830;42.290;-71.354;2023-08-30T06:09:53;2.40;;;1.83;;
81378;SDS011;70830;42.290;-71.354;2023-08-30T06:12:19;2.42;;;1.52;;
81378;SDS011;70830;42.290;-71.354;2023-08-30T06:14:45;1.80;;;1.60;;
81378;SDS011;70830;42.290;-71.354;2023-08-30T06:17:17;4.53;;;1.83;;
81378;SDS011;70830;42.290;-71.354;2023-08-30T06:19:47;2.40;;;2.20;;
81378;SDS011;70830;42.290;-71.354;2023-08-30T06:22:13;3.00;;;2.17;;
81378;SDS011;70830;42.290;-71.354;2023-08-30T06:24:39;2.63;;;2.25;;
81378;SDS011;70830;42.290;-71.354;2023-08-30T06:27:05;6.32;;;2.50;;
81378;SDS011;70830;42.290;-71.354;2023-08-30T06:29:31;5.10;;;3.20;;
81378;SDS011;70830;42.290;-71.354;2023-08-30T06:31:57;4.60;;;2.67;;
81378;SDS011;70830;42.290;-71.354;2023-08-30T06:34:24;4.88;;;2.95;;
81378;SDS011;70830;42.290;-71.354;2023-08-30T06:36:50;3.50;;;2.83;;
81378;SDS011;70830;42.290;-71.354;2023-08-30T06:39:17;4.30;;;2.72;;
81378;SDS011;70830;42.290;-71.354;2023-08-30T06:41:43;3.95;;;2.80;;
81378;SDS011;70830;42.290;-71.354;2023-08-30T06:44:09;5.43;;;2.63;;
81378;SDS011;70830;42.290;-71.354;2023-08-30T06:46:35;3.47;;;2.63;;
81378;SDS011;70830;42.290;-71.354;2023-08-30T06:49:03;6.50;;;2.72;;
81378;SDS011;70830;42.290;-71.354;2023-08-30T06:51:31;3.25;;;2.67;;
81378;SDS011;70830;42.290;-71.354;2023-08-30T06:53:57;4.40;;;2.67;;
81378;SDS011;70830;42.290;-71.354;2023-08-30T06:56:26;3.72;;;1.90;;
81378;SDS011;70830;42.290;-71.354;2023-08-30T06:58:52;1.88;;;1.77;;
81378;SDS011;70830;42.290;-71.354;2023-08-30T07:01:18;2.35;;;1.90;;
81378;SDS011;70830;42.290;-71.354;2023-08-30T07:03:44;2.00;;;1.80;;
81378;SDS011;70830;42.290;-71.354;2023-08-30T07:06:10;2.83;;;1.90;;
81378;SDS011;70830;42.290;-71.354;2023-08-30T07:08:36;2.95;;;1.92;;
81378;SDS011;70830;42.290;-71.354;2023-08-30T07:11:02;2.00;;;1.80;;
81378;SDS011;70830;42.290;-71.354;2023-08-30T07:13:28;4.38;;;1.85;;
81378;SDS011;70830;42.290;-71.354;2023-08-30T07:15:53;1.90;;;1.80;;
81378;SDS011;70830;42.290;-71.354;2023-08-30T07:18:19;1.80;;;1.60;;
81378;SDS011;70830;42.290;-71.354;2023-08-30T07:20:45;2.78;;;2.05;;
81378;SDS011;70830;42.290;-71.354;2023-08-30T07:23:11;2.05;;;1.85;;
81378;SDS011;70830;42.290;-71.354;2023-08-30T07:25:37;2.13;;;1.83;;
81378;SDS011;70830;42.290;-71.354;2023-08-30T07:28:04;1.42;;;1.30;;
81378;SDS011;70830;42.290;-71.354;2023-08-30T07:30:31;2.17;;;1.98;;
81378;SDS011;70830;42.290;-71.354;2023-08-30T07:32:56;2.22;;;1.77;;
81378;SDS011;70830;42.290;-71.354;2023-08-30T07:35:22;4.70;;;1.35;;
81378;SDS011;70830;42.290;-71.354;2023-08-30T07:37:48;3.05;;;1.75;;
81378;SDS011;70830;42.290;-71.354;2023-08-30T07:40:14;2.13;;;1.92;;
81378;SDS011;70830;42.290;-71.354;2023-08-30T07:42:40;2.90;;;2.05;;
81378;SDS011;70830;42.290;-71.354;2023-08-30T07:45:06;2.67;;;2.17;;
81378;SDS011;70830;42.290;-71.354;2023-08-30T07:47:32;3.53;;;2.00;;
81378;SDS011;70830;42.290;-71.354;2023-08-30T07:49:58;2.78;;;1.83;;
81378;SDS011;70830;42.290;-71.354;2023-08-30T07:52:24;2.30;;;1.90;;
81378;SDS011;70830;42.290;-71.354;2023-08-30T07:54:50;2.13;;;1.70;;
81378;SDS011;70830;42.290;-71.354;2023-08-30T07:57:16;2.70;;;2.13;;
81378;SDS011;70830;42.290;-71.354;2023-08-30T07:59:42;4.45;;;2.40;;
81378;SDS011;70830;42.290;-71.354;2023-08-30T08:02:08;3.35;;;2.30;;
81378;SDS011;70830;42.290;-71.354;2023-08-30T08:04:34;3.05;;;2.17;;
81378;SDS011;70830;42.290;-71.354;2023-08-30T08:07:00;4.97;;;2.22;;
81378;SDS011;70830;42.290;-71.354;2023-08-30T08:09:27;3.83;;;2.20;;
81378;SDS011;70830;42.290;-71.354;2023-08-30T08:11:53;5.07;;;2.00;;
81378;SDS011;70830;42.290;-71.354;2023-08-30T08:14:21;2.38;;;1.90;;
81378;SDS011;70830;42.290;-71.354;2023-08-30T08:16:48;2.22;;;1.83;;
81378;SDS011;70830;42.290;-71.354;2023-08-30T08:19:14;6.18;;;2.40;;
81378;SDS011;70830;42.290;-71.354;2023-08-30T08:21:39;6.00;;;2.70;;
81378;SDS011;70830;42.290;-71.354;2023-08-30T08:24:05;7.65;;;2.90;;
81378;SDS011;70830;42.290;-71.354;2023-08-30T08:26:32;3.20;;;2.38;;
81378;SDS011;70830;42.290;-71.354;2023-08-30T08:28:57;4.68;;;2.63;;
81378;SDS011;70830;42.290;-71.354;2023-08-30T08:31:23;4.10;;;2.70;;
81378;SDS011;70830;42.290;-71.354;2023-08-30T08:33:51;3.30;;;2.25;;
81378;SDS011;70830;42.290;-71.354;2023-08-30T08:36:30;5.70;;;2.75;;
81378;SDS011;70830;42.290;-71.354;2023-08-30T08:38:56;5.18;;;2.88;;
81378;SDS011;70830;42.290;-71.354;2023-08-30T08:41:22;4.60;;;2.80;;
81378;SDS011;70830;42.290;-71.354;2023-08-30T08:43:53;4.53;;;2.58;;
81378;SDS011;70830;42.290;-71.354;2023-08-30T08:46:19;5.30;;;2.90;;
81378;SDS011;70830;42.290;-71.354;2023-08-30T08:48:47;4.90;;;3.10;;
81378;SDS011;70830;42.290;-71.354;2023-08-30T08:51:14;5.10;;;3.60;;
81378;SDS011;70830;42.290;-71.354;2023-08-30T08:53:41;8.88;;;3.70;;
81378;SDS011;70830;42.290;-71.354;2023-08-30T08:56:08;6.65;;;3.78;;
81378;SDS011;70830;42.290;-71.354;2023-08-30T08:58:36;5.50;;;3.60;;
81378;SDS011;70830;42.290;-71.354;2023-08-30T09:01:03;10.45;;;3.78;;
81378;SDS011;70830;42.290;-71.354;2023-08-30T09:03:32;7.90;;;4.50;;
81378;SDS011;70830;42.290;-71.354;2023-08-30T09:06:00;9.60;;;4.00;;
81378;SDS011;70830;42.290;-71.354;2023-08-30T09:08:27;9.90;;;4.93;;
81378;SDS011;70830;42.290;-71.354;2023-08-30T09:10:54;8.75;;;4.15;;
81378;SDS011;70830;42.290;-71.354;2023-08-30T09:13:20;6.95;;;3.85;;
81378;SDS011;70830;42.290;-71.354;2023-08-30T09:15:48;5.97;;;4.55;;
81378;SDS011;70830;42.290;-71.354;2023-08-30T09:18:15;5.85;;;4.20;;
81378;SDS011;70830;42.290;-71.354;2023-08-30T09:20:42;7.07;;;4.55;;
81378;SDS011;70830;42.290;-71.354;2023-08-30T09:23:18;6.65;;;4.20;;
81378;SDS011;70830;42.290;-71.354;2023-08-30T09:25:45;9.95;;;4.57;;
81378;SDS011;70830;42.290;-71.354;2023-08-30T09:28:11;12.90;;;5.75;;
81378;SDS011;70830;42.290;-71.354;2023-08-30T09:30:39;14.65;;;5.72;;
81378;SDS011;70830;42.290;-71.354;2023-08-30T09:33:05;11.48;;;6.05;;
81378;SDS011;70830;42.290;-71.354;2023-08-30T09:35:31;10.07;;;5.40;;
81378;SDS011;70830;42.290;-71.354;2023-08-30T09:37:59;9.38;;;5.53;;
81378;SDS011;70830;42.290;-71.354;2023-08-30T09:40:24;5.07;;;4.25;;
81378;SDS011;70830;42.290;-71.354;2023-08-30T09:42:51;4.60;;;3.92;;
81378;SDS011;70830;42.290;-71.354;2023-08-30T09:45:17;5.38;;;3.75;;
81378;SDS011;70830;42.290;-71.354;2023-08-30T09:47:49;7.45;;;3.95;;
81378;SDS011;70830;42.290;-71.354;2023-08-30T09:50:20;5.90;;;4.43;;
81378;SDS011;70830;42.290;-71.354;2023-08-30T09:52:47;7.28;;;4.22;;
81378;SDS011;70830;42.290;-71.354;2023-08-30T09:55:16;7.53;;;4.07;;
81378;SDS011;70830;42.290;-71.354;2023-08-30T09:57:44;8.43;;;5.05;;
81378;SDS011;70830;42.290;-71.354;2023-08-30T10:00:10;7.15;;;4.72;;
81378;SDS011;70830;42.290;-71.354;2023-08-30T10:02:43;8.20;;;4.82;;
81378;SDS011;70830;42.290;-71.354;2023-08-30T10:05:12;11.65;;;5.63;;
81378;SDS011;70830;42.290;-71.354;2023-08-30T10:07:39;10.68;;;5.30;;
81378;SDS011;70830;42.290;-71.354;2023-08-30T10:10:05;10.38;;;5.05;;
81378;SDS011;70830;42.290;-71.354;2023-08-30T10:12:32;16.60;;;6.15;;
81378;SDS011;70830;42.290;-71.354;2023-08-30T10:14:58;16.73;;;6.20;;
81378;SDS011;70830;42.290;-71.354;2023-08-30T10:17:30;11.10;;;5.97;;
81378;SDS011;70830;42.290;-71.354;2023-08-30T10:19:59;15.00;;;5.50;;
81378;SDS011;70830;42.290;-71.354;2023-08-30T10:22:29;12.32;;;5.32;;
81378;SDS011;70830;42.290;-71.354;2023-08-30T10:29:55;12.45;;;5.68;;
81378;SDS011;70830;42.290;-71.354;2023-08-30T10:32:22;12.70;;;6.57;;
81378;SDS011;70830;42.290;-71.354;2023-08-30T10:34:48;12.73;;;6.10;;
81378;SDS011;70830;42.290;-71.354;2023-08-30T10:37:16;14.32;;;6.18;;
81378;SDS011;70830;42.290;-71.354;2023-08-30T10:39:47;16.58;;;5.93;;
81378;SDS011;70830;42.290;-71.354;2023-08-30T10:42:15;18.77;;;7.10;;
81378;SDS011;70830;42.290;-71.354;2023-08-30T10:47:22;19.73;;;7.43;;
81378;SDS011;70830;42.290;-71.354;2023-08-30T10:49:53;9.63;;;5.13;;
81378;SDS011;70830;42.290;-71.354;2023-08-30T10:52:20;13.77;;;6.25;;
81378;SDS011;70830;42.290;-71.354;2023-08-30T10:54:46;16.85;;;6.63;;
81378;SDS011;70830;42.290;-71.354;2023-08-30T10:57:18;10.70;;;5.75;;
81378;SDS011;70830;42.290;-71.354;2023-08-30T11:02:36;12.90;;;5.53;;
81378;SDS011;70830;42.290;-71.354;2023-08-30T11:05:02;9.23;;;4.70;;
81378;SDS011;70830;42.290;-71.354;2023-08-30T11:07:31;7.90;;;4.25;;
81378;SDS011;70830;42.290;-71.354;2023-08-30T11:09:57;8.25;;;4.63;;
81378;SDS011;70830;42.290;-71.354;2023-08-30T11:12:24;7.07;;;3.90;;
81378;SDS011;70830;42.290;-71.354;2023-08-30T11:14:55;3.63;;;2.70;;
81378;SDS011;70830;42.290;-71.354;2023-08-30T11:17:21;5.68;;;3.22;;
81378;SDS011;70830;42.290;-71.354;2023-08-30T11:19:50;7.78;;;3.45;;
81378;SDS011;70830;42.290;-71.354;2023-08-30T11:22:22;7.15;;;3.60;;
81378;SDS011;70830;42.290;-71.354;2023-08-30T11:24:49;4.82;;;2.65;;
81378;SDS011;70830;42.290;-71.354;2023-08-30T11:27:18;5.68;;;3.58;;
81378;SDS011;70830;42.290;-71.354;2023-08-30T11:29:44;5.55;;;3.63;;
81378;SDS011;70830;42.290;-71.354;2023-08-30T11:32:10;5.03;;;3.35;;
81378;SDS011;70830;42.290;-71.354;2023-08-30T11:34:36;8.82;;;3.47;;
81378;SDS011;70830;42.290;-71.354;2023-08-30T11:37:02;5.57;;;3.25;;
81378;SDS011;70830;42.290;-71.354;2023-08-30T11:39:28;6.00;;;2.80;;
81378;SDS011;70830;42.290;-71.354;2023-08-30T11:41:55;4.75;;;3.17;;
81378;SDS011;70830;42.290;-71.354;2023-08-30T11:44:28;11.18;;;4.18;;
81378;SDS011;70830;42.290;-71.354;2023-08-30T11:46:58;7.45;;;3.95;;
81378;SDS011;70830;42.290;-71.354;2023-08-30T11:49:25;7.00;;;3.83;;
81378;SDS011;70830;42.290;-71.354;2023-08-30T11:51:52;7.28;;;4.15;;
81378;SDS011;70830;42.290;-71.354;2023-08-30T11:54:22;5.45;;;3.05;;
81378;SDS011;70830;42.290;-71.354;2023-08-30T11:56:49;5.85;;;3.40;;
81378;SDS011;70830;42.290;-71.354;2023-08-30T11:59:19;8.55;;;4.10;;
81378;SDS011;70830;42.290;-71.354;2023-08-30T12:01:47;7.50;;;4.47;;
81378;SDS011;70830;42.290;-71.354;2023-08-30T12:04:19;8.65;;;4.75;;
81378;SDS011;70830;42.290;-71.354;2023-08-30T12:06:51;9.38;;;4.70;;
81378;SDS011;70830;42.290;-71.354;2023-08-30T12:09:18;8.25;;;4.57;;
81378;SDS011;70830;42.290;-71.354;2023-08-30T12:11:47;8.00;;;4.43;;
81378;SDS011;70830;42.290;-71.354;2023-08-30T12:14:16;8.88;;;4.47;;
81378;SDS011;70830;42.290;-71.354;2023-08-30T12:16:43;8.45;;;4.55;;
81378;SDS011;70830;42.290;-71.354;2023-08-30T12:19:11;8.57;;;4.30;;
81378;SDS011;70830;42.290;-71.354;2023-08-30T12:21:44;14.48;;;5.70;;
81378;SDS011;70830;42.290;-71.354;2023-08-30T12:24:12;16.77;;;5.72;;
81378;SDS011;70830;42.290;-71.354;2023-08-30T12:26:38;4.47;;;3.28;;
81378;SDS011;70830;42.290;-71.354;2023-08-30T12:29:04;4.65;;;3.08;;
81378;SDS011;70830;42.290;-71.354;2023-08-30T12:31:33;5.32;;;3.42;;
81378;SDS011;70830;42.290;-71.354;2023-08-30T12:33:59;5.88;;;3.42;;
81378;SDS011;70830;42.290;-71.354;2023-08-30T12:36:25;6.10;;;3.90;;
81378;SDS011;70830;42.290;-71.354;2023-08-30T12:38:51;6.88;;;3.72;;
81378;SDS011;70830;42.290;-71.354;2023-08-30T12:41:17;3.80;;;2.80;;
81378;SDS011;70830;42.290;-71.354;2023-08-30T12:43:44;6.00;;;3.80;;
81378;SDS011;70830;42.290;-71.354;2023-08-30T12:46:09;4.63;;;3.28;;
81378;SDS011;70830;42.290;-71.354;2023-08-30T12:48:35;5.45;;;3.35;;
81378;SDS011;70830;42.290;-71.354;2023-08-30T12:51:01;4.60;;;3.28;;
81378;SDS011;70830;42.290;-71.354;2023-08-30T12:53:28;5.20;;;3.75;;
81378;SDS011;70830;42.290;-71.354;2023-08-30T12:55:54;5.55;;;3.50;;
81378;SDS011;70830;42.290;-71.354;2023-08-30T12:58:20;7.05;;;3.90;;
81378;SDS011;70830;42.290;-71.354;2023-08-30T13:00:46;7.43;;;4.07;;
81378;SDS011;70830;42.290;-71.354;2023-08-30T13:03:12;5.07;;;3.30;;
81378;SDS011;70830;42.290;-71.354;2023-08-30T13:05:38;8.38;;;4.53;;
81378;SDS011;70830;42.290;-71.354;2023-08-30T13:08:04;6.32;;;3.97;;
81378;SDS011;70830;42.290;-71.354;2023-08-30T13:10:31;6.75;;;4.20;;
81378;SDS011;70830;42.290;-71.354;2023-08-30T13:12:57;6.53;;;4.38;;
81378;SDS011;70830;42.290;-71.354;2023-08-30T13:15:23;4.32;;;3.67;;
81378;SDS011;70830;42.290;-71.354;2023-08-30T13:17:49;6.50;;;3.90;;
81378;SDS011;70830;42.290;-71.354;2023-08-30T13:20:15;6.60;;;3.47;;
81378;SDS011;70830;42.290;-71.354;2023-08-30T13:22:41;6.20;;;3.45;;
81378;SDS011;70830;42.290;-71.354;2023-08-30T13:25:07;6.82;;;4.18;;
81378;SDS011;70830;42.290;-71.354;2023-08-30T13:27:34;4.38;;;2.83;;
81378;SDS011;70830;42.290;-71.354;2023-08-30T13:30:00;4.30;;;3.30;;
81378;SDS011;70830;42.290;-71.354;2023-08-30T13:32:26;3.35;;;2.65;;
81378;SDS011;70830;42.290;-71.354;2023-08-30T13:34:52;3.47;;;2.50;;
81378;SDS011;70830;42.290;-71.354;2023-08-30T13:37:18;11.45;;;3.47;;
81378;SDS011;70830;42.290;-71.354;2023-08-30T13:39:44;2.97;;;1.80;;
81378;SDS011;70830;42.290;-71.354;2023-08-30T13:42:11;1.90;;;1.33;;
81378;SDS011;70830;42.290;-71.354;2023-08-30T13:44:37;4.60;;;1.65;;
81378;SDS011;70830;42.290;-71.354;2023-08-30T13:47:06;1.85;;;1.42;;
81378;SDS011;70830;42.290;-71.354;2023-08-30T13:49:32;1.70;;;1.35;;
81378;SDS011;70830;42.290;-71.354;2023-08-30T13:51:58;3.22;;;1.27;;
81378;SDS011;70830;42.290;-71.354;2023-08-30T13:54:24;1.60;;;1.50;;
81378;SDS011;70830;42.290;-71.354;2023-08-30T13:56:50;1.70;;;1.50;;
81378;SDS011;70830;42.290;-71.354;2023-08-30T13:59:16;2.42;;;1.38;;
81378;SDS011;70830;42.290;-71.354;2023-08-30T14:01:42;1.05;;;0.95;;
81378;SDS011;70830;42.290;-71.354;2023-08-30T14:04:08;1.05;;;0.95;;
81378;SDS011;70830;42.290;-71.354;2023-08-30T14:06:34;1.30;;;1.20;;
81378;SDS011;70830;42.290;-71.354;2023-08-30T14:09:00;2.53;;;1.20;;
81378;SDS011;70830;42.290;-71.354;2023-08-30T14:11:26;3.47;;;1.58;;
81378;SDS011;70830;42.290;-71.354;2023-08-30T14:13:52;3.35;;;1.73;;
81378;SDS011;70830;42.290;-71.354;2023-08-30T14:16:19;2.17;;;1.60;;
81378;SDS011;70830;42.290;-71.354;2023-08-30T14:18:44;2.30;;;1.50;;
81378;SDS011;70830;42.290;-71.354;2023-08-30T14:21:10;2.28;;;1.58;;
81378;SDS011;70830;42.290;-71.354;2023-08-30T14:23:36;2.35;;;1.60;;
81378;SDS011;70830;42.290;-71.354;2023-08-30T14:26:03;1.58;;;1.45;;
81378;SDS011;70830;42.290;-71.354;2023-08-30T14:28:34;4.37;;;1.40;;
81378;SDS011;70830;42.290;-71.354;2023-08-30T14:31:03;1.38;;;1.25;;